Terminal Aerodrome Forecast
Issued by NWS

Home | Current Version | Previous Version | Text Only | Print | Product List | Glossary On
Versions: 1 2 3 4 5 6 7 8 9 10 11 12 13 14 15 16 17
996
FTUS42 KFFC 022331
TAFRYY
TAF
KRYY 022331Z 0300/0324 24010KT P6SM FEW045 BKN100
      TEMPO 0300/0304 VRB15G25KT 4SM TSRA BR BKN025CB
     FM030400 23006KT P6SM VCSH BKN040
     FM030600 25003KT 5SM BR SCT009 BKN015
     FM031000 24004KT 6SM BR BKN008
     FM031400 27009KT P6SM OVC015 PROB30 0316/0320 -SHRA OVC030
      AMD NOT SKED 0304/0312=

USA.gov is the U.S. government's official web portal to all federal, state and local government web resources and services.